Time;durP1;ratioP1;P1;durP2;ratioP2;P2;SDS_P1;SDS_P2;PMS_P1;PMS_P2;Temp;Humidity;BMP_temperature;BMP_pressure;BME280_temperature;BME280_humidity;BME280_pressure;Samples;Min_cycle;Max_cycle;Signal;HPM_P1;HPM_P2
2022/05/16 00:00:00;;;;;;;;;;;11.90;99.90;;;;;;5048888;28;19955;-72
2022/05/16 00:02:26;;;;;;;;;;;11.90;99.90;;;;;;5052675;28;19956;-73
2022/05/16 00:04:51;;;;;;;;;;;11.80;99.90;;;;;;5052685;28;19913;-72
2022/05/16 00:07:18;;;;;;;;;;;11.80;99.90;;;;;;5053024;28;19932;-75
2022/05/16 00:09:44;;;;;;;;;;;11.80;99.90;;;;;;5052978;28;19955;-72
2022/05/16 00:12:10;;;;;;;;;;;11.70;99.90;;;;;;5050989;28;19909;-73
2022/05/16 00:14:37;;;;;;;;;;;11.70;99.90;;;;;;5052328;28;20384;-73
2022/05/16 00:17:02;;;;;;;;;;;11.70;99.90;;;;;;5069369;28;19917;-73
2022/05/16 00:19:28;;;;;;;;;;;11.50;99.90;;;;;;5071299;28;20057;-73
2022/05/16 00:21:53;;;;;;;;;;;11.60;99.90;;;;;;5071539;28;20319;-72
2022/05/16 00:24:24;;;;;;;;;;;11.60;99.90;;;;;;5071560;28;19912;-72
2022/05/16 00:26:49;;;;;;;;;;;11.70;99.90;;;;;;5071723;28;19908;-77
2022/05/16 00:29:15;;;;;;;;;;;11.60;99.90;;;;;;5062971;28;20389;-72
2022/05/16 00:31:40;;;;;;;;;;;11.50;99.90;;;;;;5055615;28;20015;-72
2022/05/16 00:34:06;;;;;;;;;;;11.60;99.90;;;;;;5051836;28;19970;-73
2022/05/16 00:36:31;;;;;;;;;;;11.50;99.90;;;;;;5054570;28;19921;-72
2022/05/16 00:38:57;;;;;;;;;;;11.50;99.90;;;;;;5071676;28;19912;-72
2022/05/16 00:41:22;;;;;;;;;;;11.50;99.90;;;;;;5071032;28;19909;-72
2022/05/16 00:43:52;;;;;;;;;;;11.40;99.90;;;;;;5070579;28;19916;-73
2022/05/16 00:46:19;;;;;;;;;;;11.40;99.90;;;;;;5071456;28;19934;-74
2022/05/16 00:48:45;;;;;;;;;;;11.40;99.90;;;;;;5071472;28;19965;-72
2022/05/16 00:51:13;;;;;;;;;;;11.30;99.90;;;;;;5071434;28;19916;-72
2022/05/16 00:53:40;;;;;;;;;;;11.30;99.90;;;;;;5062622;28;19908;-72
2022/05/16 00:56:06;;;;;;;;;;;11.20;99.90;;;;;;5051986;28;19920;-77
2022/05/16 00:58:33;;;;;;;;;;;11.30;99.90;;;;;;5050006;28;20039;-74
2022/05/16 01:00:59;;;;;;;;;;;11.30;99.90;;;;;;5051802;28;19908;-72
2022/05/16 01:06:08;;;;;;;;;;;11.20;99.90;;;;;;5061240;28;20389;-72
2022/05/16 01:08:36;;;;;;;;;;;11.20;99.90;;;;;;5052089;28;19913;-77
2022/05/16 01:11:06;;;;;;;;;;;11.20;99.90;;;;;;5051931;28;20417;-72
2022/05/16 01:13:32;;;;;;;;;;;11.20;99.90;;;;;;5051017;28;20004;-72
2022/05/16 01:15:59;;;;;;;;;;;11.10;99.90;;;;;;5051689;28;20015;-72
2022/05/16 01:18:25;;;;;;;;;;;11.10;99.90;;;;;;5061617;28;19912;-73
2022/05/16 01:20:54;;;;;;;;;;;11.10;99.90;;;;;;5071064;28;19915;-72
2022/05/16 01:23:22;;;;;;;;;;;11.30;99.90;;;;;;5070424;28;19913;-72
2022/05/16 01:25:49;;;;;;;;;;;11.40;99.90;;;;;;5070878;28;19912;-72
2022/05/16 01:28:17;;;;;;;;;;;11.40;99.90;;;;;;5067503;28;19935;-74
2022/05/16 01:30:47;;;;;;;;;;;11.30;99.90;;;;;;5055720;28;20358;-72
2022/05/16 01:33:15;;;;;;;;;;;11.30;99.90;;;;;;5058540;28;20003;-72
2022/05/16 01:35:40;;;;;;;;;;;11.30;99.90;;;;;;5074843;28;19958;-72
2022/05/16 01:38:18;;;;;;;;;;;11.50;99.90;;;;;;5074979;28;19912;-72
2022/05/16 01:40:45;;;;;;;;;;;11.50;99.90;;;;;;5075183;28;19962;-72
2022/05/16 01:43:10;;;;;;;;;;;11.30;99.90;;;;;;5073538;28;19908;-72
2022/05/16 01:45:37;;;;;;;;;;;11.20;99.90;;;;;;5074974;28;20281;-72
2022/05/16 01:48:02;;;;;;;;;;;11.30;99.90;;;;;;5074740;28;19914;-73
2022/05/16 01:50:28;;;;;;;;;;;11.30;99.90;;;;;;5074653;28;19955;-73
2022/05/16 01:52:53;;;;;;;;;;;11.20;99.90;;;;;;5074206;28;19934;-75
2022/05/16 01:55:19;;;;;;;;;;;11.10;99.90;;;;;;5074090;28;19912;-72
2022/05/16 01:57:44;;;;;;;;;;;11.10;99.90;;;;;;5058057;28;20003;-73
2022/05/16 02:00:12;;;;;;;;;;;11.30;99.90;;;;;;5055238;28;19916;-73
2022/05/16 02:02:42;;;;;;;;;;;11.20;99.90;;;;;;5056239;28;19915;-73
2022/05/16 02:05:09;;;;;;;;;;;11.30;99.90;;;;;;5054731;28;19909;-78
2022/05/16 02:07:34;;;;;;;;;;;11.30;99.90;;;;;;5055463;28;19932;-72
2022/05/16 02:10:01;;;;;;;;;;;11.30;99.90;;;;;;5055293;28;19908;-75
2022/05/16 02:12:26;;;;;;;;;;;11.30;99.90;;;;;;5054582;28;19908;-73
2022/05/16 02:14:52;;;;;;;;;;;11.50;99.90;;;;;;5054689;28;19909;-77
2022/05/16 02:17:17;;;;;;;;;;;11.50;99.90;;;;;;5070662;28;19913;-72
2022/05/16 02:19:43;;;;;;;;;;;11.60;99.90;;;;;;5074193;28;19913;-72
2022/05/16 02:24:54;;;;;;;;;;;11.70;99.90;;;;;;5047980;28;19909;-75
2022/05/16 02:27:19;;;;;;;;;;;11.70;99.90;;;;;;5053645;28;19913;-72
2022/05/16 02:29:45;;;;;;;;;;;11.60;99.90;;;;;;5054427;28;19908;-73
2022/05/16 02:32:11;;;;;;;;;;;11.70;99.90;;;;;;5057989;28;20000;-73
2022/05/16 02:34:37;;;;;;;;;;;11.70;99.90;;;;;;5054323;28;19951;-73
2022/05/16 02:37:03;;;;;;;;;;;11.60;99.90;;;;;;5054699;28;19963;-76
2022/05/16 02:39:28;;;;;;;;;;;11.50;99.90;;;;;;5055075;28;19916;-75
2022/05/16 02:41:54;;;;;;;;;;;11.60;99.90;;;;;;5053558;28;20322;-72
2022/05/16 02:44:21;;;;;;;;;;;11.50;99.90;;;;;;5054084;28;20265;-72
2022/05/16 02:46:46;;;;;;;;;;;11.50;99.90;;;;;;5054735;28;19912;-72
2022/05/16 02:49:12;;;;;;;;;;;11.40;99.90;;;;;;5054660;28;19928;-72
2022/05/16 02:51:37;;;;;;;;;;;11.40;99.90;;;;;;5054281;28;19909;-72
2022/05/16 02:54:03;;;;;;;;;;;11.40;99.90;;;;;;5054022;28;20392;-72
2022/05/16 02:56:29;;;;;;;;;;;11.50;99.90;;;;;;5054759;28;19913;-76
2022/05/16 02:58:54;;;;;;;;;;;11.50;99.90;;;;;;5053975;28;19958;-71
2022/05/16 03:01:20;;;;;;;;;;;11.60;99.90;;;;;;5060147;28;20003;-71
2022/05/16 03:03:46;;;;;;;;;;;11.60;99.90;;;;;;5053332;28;19909;-71
2022/05/16 03:06:12;;;;;;;;;;;11.60;99.90;;;;;;5054244;28;19920;-72
2022/05/16 03:08:37;;;;;;;;;;;11.70;99.90;;;;;;5060946;28;19916;-73
2022/05/16 03:11:04;;;;;;;;;;;11.70;99.90;;;;;;5073464;28;20326;-71
2022/05/16 03:13:29;;;;;;;;;;;11.70;99.90;;;;;;5065910;28;20362;-74
2022/05/16 03:15:55;;;;;;;;;;;11.70;99.90;;;;;;5073158;28;19923;-72
2022/05/16 03:18:22;;;;;;;;;;;11.70;99.90;;;;;;5047516;28;19999;-72
2022/05/16 03:20:49;;;;;;;;;;;11.80;99.90;;;;;;5047913;28;20286;-71
2022/05/16 03:23:15;;;;;;;;;;;11.90;99.90;;;;;;5053511;28;19908;-71
2022/05/16 03:25:40;;;;;;;;;;;11.90;99.90;;;;;;5054071;28;19963;-71
2022/05/16 03:28:06;;;;;;;;;;;11.90;99.90;;;;;;5053708;28;19951;-74
2022/05/16 03:30:31;;;;;;;;;;;12.00;99.90;;;;;;5055128;28;19956;-76
2022/05/16 03:32:57;;;;;;;;;;;11.90;99.90;;;;;;5060713;28;19915;-71
2022/05/16 03:35:23;;;;;;;;;;;11.90;99.90;;;;;;5055882;28;19919;-71
2022/05/16 03:37:48;;;;;;;;;;;11.90;99.90;;;;;;5055388;28;19913;-72
2022/05/16 03:42:59;;;;;;;;;;;12.00;99.90;;;;;;5054803;28;19916;-71
2022/05/16 03:45:25;;;;;;;;;;;12.10;99.90;;;;;;5054963;28;19909;-71
2022/05/16 03:47:50;;;;;;;;;;;12.20;99.90;;;;;;5053792;28;19916;-74
2022/05/16 03:50:16;;;;;;;;;;;12.20;99.90;;;;;;5066340;28;19922;-71
2022/05/16 03:52:41;;;;;;;;;;;12.30;99.90;;;;;;5072170;28;19913;-71
2022/05/16 03:55:08;;;;;;;;;;;12.40;99.90;;;;;;5072066;28;19996;-72
2022/05/16 03:57:33;;;;;;;;;;;12.50;99.90;;;;;;5072425;28;19912;-71
2022/05/16 03:59:59;;;;;;;;;;;12.60;99.90;;;;;;5071123;28;20316;-71
2022/05/16 04:02:24;;;;;;;;;;;12.50;99.90;;;;;;5050966;28;19948;-73
2022/05/16 04:04:50;;;;;;;;;;;12.50;99.90;;;;;;5052553;28;19995;-71
2022/05/16 04:07:16;;;;;;;;;;;12.60;99.90;;;;;;5052650;28;20376;-71
2022/05/16 04:09:41;;;;;;;;;;;12.60;99.90;;;;;;5051690;28;19913;-72
2022/05/16 04:12:07;;;;;;;;;;;12.80;99.90;;;;;;5052533;28;19912;-74
2022/05/16 04:14:33;;;;;;;;;;;12.80;99.90;;;;;;5052138;28;19919;-71
2022/05/16 04:16:58;;;;;;;;;;;12.80;99.90;;;;;;5053003;28;19913;-71
2022/05/16 04:19:25;;;;;;;;;;;12.70;99.90;;;;;;5052809;28;19915;-71
2022/05/16 04:21:50;;;;;;;;;;;12.70;99.90;;;;;;5052492;28;19909;-72
2022/05/16 04:24:16;;;;;;;;;;;12.70;99.90;;;;;;5052295;28;19915;-71
2022/05/16 04:26:42;;;;;;;;;;;12.70;99.90;;;;;;5055609;28;19916;-72
2022/05/16 04:29:07;;;;;;;;;;;12.80;99.90;;;;;;5071724;28;19912;-72
2022/05/16 04:31:33;;;;;;;;;;;12.90;99.90;;;;;;5062086;28;20270;-71
2022/05/16 04:33:58;;;;;;;;;;;12.90;99.90;;;;;;5050846;28;20201;-71
2022/05/16 04:36:24;;;;;;;;;;;13.00;99.90;;;;;;5052561;28;20012;-71
2022/05/16 04:38:49;;;;;;;;;;;13.00;99.90;;;;;;5052537;28;20289;-73
2022/05/16 04:43:59;;;;;;;;;;;13.20;99.90;;;;;;5051810;28;19916;-71
2022/05/16 04:46:24;;;;;;;;;;;13.20;99.90;;;;;;5055584;28;19995;-71
2022/05/16 04:48:50;;;;;;;;;;;13.30;99.90;;;;;;5064612;28;19939;-74
2022/05/16 04:51:16;;;;;;;;;;;13.30;99.90;;;;;;5070676;28;20009;-73
2022/05/16 04:53:41;;;;;;;;;;;13.40;99.90;;;;;;5069837;28;19956;-71
2022/05/16 04:56:07;;;;;;;;;;;13.50;99.90;;;;;;5071024;28;19926;-71
2022/05/16 04:58:33;;;;;;;;;;;13.60;99.90;;;;;;5055628;28;19915;-71
2022/05/16 05:01:02;;;;;;;;;;;13.60;99.90;;;;;;5051522;28;19908;-71
2022/05/16 05:03:28;;;;;;;;;;;13.70;99.90;;;;;;5050183;28;19970;-75
2022/05/16 05:05:53;;;;;;;;;;;13.70;99.90;;;;;;5051442;28;20387;-71
2022/05/16 05:08:19;;;;;;;;;;;13.70;99.90;;;;;;5051615;28;19913;-71
2022/05/16 05:16:17;;;;;;;;;;;13.80;99.90;;;;;;5051482;28;19970;-71
2022/05/16 05:18:43;;;;;;;;;;;13.90;99.90;;;;;;5051237;28;19963;-72
2022/05/16 05:21:09;;;;;;;;;;;14.00;99.90;;;;;;5070720;28;19909;-73
2022/05/16 05:23:34;;;;;;;;;;;14.10;99.90;;;;;;5069774;28;19908;-76
2022/05/16 05:26:01;;;;;;;;;;;14.20;99.90;;;;;;5070710;28;20374;-72
2022/05/16 05:28:27;;;;;;;;;;;14.30;99.90;;;;;;5070341;28;19909;-74
2022/05/16 05:30:52;;;;;;;;;;;14.40;99.90;;;;;;5064416;28;20353;-72
2022/05/16 05:33:18;;;;;;;;;;;14.40;99.90;;;;;;5050724;28;20094;-72
2022/05/16 05:35:43;;;;;;;;;;;14.50;99.90;;;;;;5051378;28;19916;-71
2022/05/16 05:38:09;;;;;;;;;;;14.50;99.90;;;;;;5051355;28;19909;-72
2022/05/16 05:40:35;;;;;;;;;;;14.60;99.90;;;;;;5051271;28;19948;-73
2022/05/16 05:43:02;;;;;;;;;;;14.70;99.90;;;;;;5050806;28;19909;-74
2022/05/16 05:45:28;;;;;;;;;;;14.60;99.90;;;;;;5050616;28;19909;-71
2022/05/16 05:47:53;;;;;;;;;;;14.70;99.90;;;;;;5051222;28;19913;-72
2022/05/16 05:50:19;;;;;;;;;;;14.80;99.90;;;;;;5051285;28;19917;-71
2022/05/16 05:52:44;;;;;;;;;;;14.80;99.90;;;;;;5050816;28;20178;-71
2022/05/16 05:55:10;;;;;;;;;;;14.90;99.90;;;;;;5050643;28;20319;-71
2022/05/16 05:57:35;;;;;;;;;;;14.90;99.90;;;;;;5051122;28;19955;-74
2022/05/16 06:00:01;;;;;;;;;;;15.00;99.90;;;;;;5050826;28;19909;-71
2022/05/16 06:02:26;;;;;;;;;;;15.00;99.90;;;;;;5049987;28;20026;-72
2022/05/16 06:04:52;;;;;;;;;;;15.10;99.90;;;;;;5050380;28;19909;-72
2022/05/16 06:07:17;;;;;;;;;;;15.30;99.90;;;;;;5049853;28;19908;-74
2022/05/16 06:09:43;;;;;;;;;;;15.40;99.90;;;;;;5066270;28;20351;-71
2022/05/16 06:12:09;;;;;;;;;;;15.50;99.90;;;;;;5069768;28;19915;-71
2022/05/16 06:14:34;;;;;;;;;;;15.50;99.90;;;;;;5069337;28;19915;-71
2022/05/16 06:17:00;;;;;;;;;;;15.60;99.90;;;;;;5070820;28;20273;-72
2022/05/16 06:19:25;;;;;;;;;;;15.60;99.90;;;;;;5074393;28;19908;-70
2022/05/16 06:21:51;;;;;;;;;;;15.70;99.90;;;;;;5073961;28;20457;-73
2022/05/16 06:27:02;;;;;;;;;;;15.80;99.90;;;;;;5075134;28;19947;-73
2022/05/16 06:29:28;;;;;;;;;;;16.00;99.90;;;;;;5073886;28;19919;-72
2022/05/16 06:31:54;;;;;;;;;;;16.10;99.90;;;;;;5057613;28;19913;-71
2022/05/16 06:34:19;;;;;;;;;;;16.50;99.90;;;;;;5069233;28;20336;-74
2022/05/16 06:36:45;;;;;;;;;;;16.90;99.90;;;;;;5066237;28;19920;-73
2022/05/16 06:39:11;;;;;;;;;;;17.30;99.90;;;;;;5074164;28;19999;-73
2022/05/16 06:41:36;;;;;;;;;;;18.00;99.90;;;;;;5060978;28;19920;-73
2022/05/16 06:44:02;;;;;;;;;;;18.50;99.90;;;;;;5059484;28;20277;-74
2022/05/16 06:46:28;;;;;;;;;;;18.90;99.90;;;;;;5046506;28;20209;-74
2022/05/16 06:48:54;;;;;;;;;;;19.40;99.90;;;;;;5053066;28;19917;-73
2022/05/16 06:51:19;;;;;;;;;;;20.50;99.90;;;;;;5053983;28;20709;-73
2022/05/16 06:53:45;;;;;;;;;;;20.60;99.90;;;;;;5054083;28;19917;-73
2022/05/16 06:56:10;;;;;;;;;;;20.30;99.90;;;;;;5054115;28;20370;-71
2022/05/16 06:58:36;;;;;;;;;;;20.30;99.90;;;;;;5054597;28;19963;-73
2022/05/16 07:01:02;;;;;;;;;;;21.20;99.90;;;;;;5062337;28;19935;-73
2022/05/16 07:03:27;;;;;;;;;;;21.00;99.90;;;;;;5048135;28;19909;-73
2022/05/16 07:05:53;;;;;;;;;;;21.70;99.60;;;;;;5053679;28;19915;-74
2022/05/16 07:08:19;;;;;;;;;;;22.70;99.20;;;;;;5053777;28;19908;-74
2022/05/16 07:10:46;;;;;;;;;;;22.50;99.90;;;;;;5047514;28;19917;-73
2022/05/16 07:13:12;;;;;;;;;;;23.10;97.80;;;;;;5052249;28;19915;-74
2022/05/16 07:15:37;;;;;;;;;;;21.70;98.60;;;;;;5053249;28;19913;-73
2022/05/16 07:18:03;;;;;;;;;;;21.70;98.20;;;;;;5053355;28;19935;-71
2022/05/16 07:20:28;;;;;;;;;;;21.70;97.80;;;;;;5053641;28;19909;-74
2022/05/16 07:22:58;;;;;;;;;;;21.50;98.50;;;;;;5052836;28;19908;-74
2022/05/16 07:25:28;;;;;;;;;;;21.40;98.40;;;;;;5053102;28;19909;-73
2022/05/16 07:27:57;;;;;;;;;;;21.60;98.00;;;;;;5052722;28;20016;-73
2022/05/16 07:30:24;;;;;;;;;;;21.80;98.10;;;;;;5053705;28;19909;-73
2022/05/16 07:32:50;;;;;;;;;;;21.90;97.50;;;;;;5052226;28;20007;-73
2022/05/16 07:35:17;;;;;;;;;;;21.90;97.10;;;;;;5052681;28;20003;-73
2022/05/16 07:37:44;;;;;;;;;;;22.40;98.50;;;;;;5052827;28;19944;-73
2022/05/16 07:40:11;;;;;;;;;;;23.10;96.80;;;;;;5053011;28;20325;-73
2022/05/16 07:42:37;;;;;;;;;;;22.60;94.80;;;;;;5052307;28;19971;-73
2022/05/16 07:45:05;;;;;;;;;;;22.10;94.70;;;;;;5052060;28;19913;-73
2022/05/16 07:47:31;;;;;;;;;;;22.00;97.10;;;;;;5052487;28;20290;-73
2022/05/16 07:49:57;;;;;;;;;;;21.90;95.50;;;;;;5052888;28;19916;-73
2022/05/16 07:52:23;;;;;;;;;;;22.00;96.30;;;;;;5052436;28;19916;-73
2022/05/16 07:54:48;;;;;;;;;;;21.80;97.00;;;;;;5051408;28;19909;-73
2022/05/16 07:57:14;;;;;;;;;;;21.80;98.60;;;;;;5052465;28;19921;-72
2022/05/16 07:59:41;;;;;;;;;;;21.70;97.70;;;;;;5052516;28;20267;-73
2022/05/16 08:02:07;;;;;;;;;;;21.40;99.90;;;;;;5050108;28;19940;-72
2022/05/16 08:04:33;;;;;;;;;;;21.30;99.90;;;;;;5049371;28;20438;-72
2022/05/16 08:06:58;;;;;;;;;;;21.00;99.90;;;;;;5052395;28;20294;-71
2022/05/16 08:12:10;;;;;;;;;;;21.30;99.90;;;;;;5055271;28;19919;-73
2022/05/16 08:14:38;;;;;;;;;;;21.40;99.90;;;;;;5051553;28;19932;-74
2022/05/16 08:17:04;;;;;;;;;;;21.50;99.90;;;;;;5050824;28;19924;-73
2022/05/16 08:19:33;;;;;;;;;;;21.80;99.30;;;;;;5052564;28;19916;-73
2022/05/16 08:21:59;;;;;;;;;;;22.80;98.40;;;;;;5051772;28;19915;-73
2022/05/16 08:24:25;;;;;;;;;;;24.10;96.30;;;;;;5051770;28;19908;-72
2022/05/16 08:26:50;;;;;;;;;;;25.70;93.20;;;;;;5051790;28;20365;-73
2022/05/16 08:29:16;;;;;;;;;;;24.80;93.80;;;;;;5052146;28;20008;-73
2022/05/16 08:31:41;;;;;;;;;;;25.50;91.10;;;;;;5051500;28;20263;-73
2022/05/16 08:34:07;;;;;;;;;;;25.10;91.80;;;;;;5051459;28;19951;-73
2022/05/16 08:42:04;;;;;;;;;;;26.90;89.40;;;;;;5070904;28;20431;-74
2022/05/16 08:44:32;;;;;;;;;;;26.90;90.00;;;;;;5051266;28;19974;-73
2022/05/16 08:47:06;;;;;;;;;;;26.50;89.90;;;;;;5066216;28;19916;-73
2022/05/16 08:49:35;;;;;;;;;;;25.60;91.50;;;;;;5053139;28;19920;-74
2022/05/16 08:52:10;;;;;;;;;;;25.60;92.30;;;;;;5067756;28;19908;-74
2022/05/16 08:54:40;;;;;;;;;;;25.10;87.50;;;;;;5067429;28;20262;-73
2022/05/16 08:57:07;;;;;;;;;;;25.00;92.40;;;;;;5066752;28;19977;-73
2022/05/16 08:59:36;;;;;;;;;;;24.80;91.00;;;;;;5070404;28;19908;-73
2022/05/16 09:02:07;;;;;;;;;;;24.40;91.90;;;;;;5046935;28;19919;-73
2022/05/16 09:04:39;;;;;;;;;;;25.20;92.10;;;;;;5049369;28;19913;-73
2022/05/16 09:07:05;;;;;;;;;;;27.00;90.30;;;;;;5048310;28;20277;-73
2022/05/16 09:09:51;;;;;;;;;;;28.80;87.10;;;;;;5060065;28;20381;-73
2022/05/16 09:12:18;;;;;;;;;;;29.20;81.40;;;;;;5051888;28;19963;-73
2022/05/16 09:15:03;;;;;;;;;;;29.40;84.20;;;;;;5049022;28;20286;-73
2022/05/16 09:17:43;;;;;;;;;;;27.80;77.80;;;;;;5051070;28;20263;-73
2022/05/16 09:20:10;;;;;;;;;;;27.50;83.80;;;;;;5051838;28;19909;-73
2022/05/16 09:22:39;;;;;;;;;;;28.90;83.40;;;;;;5044060;28;20226;-73
2022/05/16 09:25:10;;;;;;;;;;;27.70;77.70;;;;;;5053331;28;20361;-74
2022/05/16 09:30:25;;;;;;;;;;;25.70;86.10;;;;;;5050884;28;19915;-72
2022/05/16 09:32:55;;;;;;;;;;;25.20;85.70;;;;;;5044736;28;20411;-73
2022/05/16 09:35:29;;;;;;;;;;;24.40;85.00;;;;;;5050865;28;19937;-73
2022/05/16 09:37:55;;;;;;;;;;;23.50;85.80;;;;;;5050973;28;19909;-73
2022/05/16 09:40:24;;;;;;;;;;;23.40;87.50;;;;;;5051184;28;19970;-73
2022/05/16 09:42:52;;;;;;;;;;;23.30;87.50;;;;;;5050476;28;20362;-73
2022/05/16 09:45:21;;;;;;;;;;;22.60;89.10;;;;;;5050301;28;19909;-73
2022/05/16 09:47:46;;;;;;;;;;;23.10;90.20;;;;;;5050817;28;20000;-74
2022/05/16 09:50:27;;;;;;;;;;;24.20;86.70;;;;;;5051312;28;20011;-73
2022/05/16 09:53:02;;;;;;;;;;;25.30;86.30;;;;;;5054451;28;20003;-74
2022/05/16 09:55:29;;;;;;;;;;;26.10;81.80;;;;;;5054691;28;20274;-74
2022/05/16 09:57:58;;;;;;;;;;;25.90;83.30;;;;;;5054581;28;19909;-72
2022/05/16 10:00:42;;;;;;;;;;;26.70;80.70;;;;;;5053654;28;20373;-73
2022/05/16 10:03:19;;;;;;;;;;;26.90;79.70;;;;;;5049493;28;19912;-73
2022/05/16 10:05:47;;;;;;;;;;;27.40;81.10;;;;;;5065487;28;19908;-72
2022/05/16 10:08:17;;;;;;;;;;;26.40;79.70;;;;;;5073398;28;19913;-73
2022/05/16 10:10:45;;;;;;;;;;;25.60;78.20;;;;;;5064474;28;19909;-73
2022/05/16 10:13:12;;;;;;;;;;;26.30;78.80;;;;;;5050154;28;19912;-73
2022/05/16 10:15:37;;;;;;;;;;;26.10;78.90;;;;;;5054688;28;19952;-72
2022/05/16 10:18:05;;;;;;;;;;;26.70;78.90;;;;;;5054523;28;19956;-74
2022/05/16 10:20:32;;;;;;;;;;;28.20;76.40;;;;;;5054675;28;19909;-73
2022/05/16 10:23:02;;;;;;;;;;;26.10;79.30;;;;;;5053923;28;20023;-73
2022/05/16 10:25:32;;;;;;;;;;;25.80;82.80;;;;;;5054306;28;19916;-73
2022/05/16 10:27:57;;;;;;;;;;;26.80;82.50;;;;;;5054308;28;19909;-73
2022/05/16 10:30:24;;;;;;;;;;;25.70;81.30;;;;;;5054479;28;19909;-73
2022/05/16 10:35:48;;;;;;;;;;;24.70;84.30;;;;;;5052964;28;19920;-73
2022/05/16 10:38:28;;;;;;;;;;;24.40;86.20;;;;;;5053976;28;19948;-73
2022/05/16 10:40:57;;;;;;;;;;;23.40;86.90;;;;;;5054092;28;20007;-73
2022/05/16 10:43:30;;;;;;;;;;;22.70;87.20;;;;;;5053331;28;20366;-72
2022/05/16 10:46:01;;;;;;;;;;;22.30;87.40;;;;;;5052758;28;19913;-73
2022/05/16 10:48:34;;;;;;;;;;;22.00;87.90;;;;;;5053826;28;19917;-73
2022/05/16 10:51:08;;;;;;;;;;;21.90;90.00;;;;;;5053957;28;19917;-73
2022/05/16 10:53:45;;;;;;;;;;;21.90;90.10;;;;;;5053090;28;20382;-73
2022/05/16 10:56:32;;;;;;;;;;;21.70;87.70;;;;;;5053491;28;19963;-73
2022/05/16 10:59:12;;;;;;;;;;;21.60;90.10;;;;;;5053887;28;19955;-73
2022/05/16 11:01:42;;;;;;;;;;;20.80;92.10;;;;;;5052459;28;20306;-72
2022/05/16 11:04:10;;;;;;;;;;;20.20;95.10;;;;;;5050283;28;19909;-72
2022/05/16 11:06:51;;;;;;;;;;;20.30;95.50;;;;;;5054599;28;20024;-72
2022/05/16 11:09:33;;;;;;;;;;;19.90;94.60;;;;;;5053681;28;19909;-72
2022/05/16 11:12:02;;;;;;;;;;;19.60;93.50;;;;;;5051466;28;20001;-72
2022/05/16 11:14:32;;;;;;;;;;;19.40;94.60;;;;;;5053254;28;20388;-72
2022/05/16 11:17:21;;;;;;;;;;;19.40;94.10;;;;;;5052323;28;19956;-73
2022/05/16 11:19:53;;;;;;;;;;;19.30;93.40;;;;;;5052904;28;19909;-72
2022/05/16 11:22:23;;;;;;;;;;;19.20;92.70;;;;;;5053284;28;20258;-73
2022/05/16 11:24:57;;;;;;;;;;;19.20;93.10;;;;;;5052781;28;19916;-73
2022/05/16 11:27:30;;;;;;;;;;;19.20;92.80;;;;;;5052213;28;19917;-72
2022/05/16 11:30:07;;;;;;;;;;;19.10;93.40;;;;;;5052826;28;19935;-73
2022/05/16 11:32:40;;;;;;;;;;;18.90;93.50;;;;;;5052353;28;19913;-72
2022/05/16 11:35:08;;;;;;;;;;;18.60;93.90;;;;;;5052156;28;19908;-73
2022/05/16 11:37:52;;;;;;;;;;;18.40;94.60;;;;;;5052560;28;20412;-72
2022/05/16 11:40:20;;;;;;;;;;;17.70;95.90;;;;;;5052980;28;19909;-72
2022/05/16 11:42:52;;;;;;;;;;;17.50;98.50;;;;;;5052065;28;19909;-71
2022/05/16 11:45:43;;;;;;;;;;;17.00;99.90;;;;;;5052148;28;19909;-73
2022/05/16 11:48:08;;;;;;;;;;;16.10;99.90;;;;;;5052391;28;19909;-72
2022/05/16 11:50:38;;;;;;;;;;;15.30;99.90;;;;;;5051458;28;19917;-73
2022/05/16 11:53:23;;;;;;;;;;;15.40;99.90;;;;;;5051928;28;19956;-72
2022/05/16 12:01:32;;;;;;;;;;;15.40;99.90;;;;;;5050441;28;19919;-74
2022/05/16 12:04:11;;;;;;;;;;;15.60;99.90;;;;;;5058118;28;19912;-73
2022/05/16 12:06:41;;;;;;;;;;;15.70;99.90;;;;;;5051817;28;20397;-73
2022/05/16 12:09:19;;;;;;;;;;;15.90;99.90;;;;;;5052074;28;19913;-73
2022/05/16 12:11:51;;;;;;;;;;;16.20;99.90;;;;;;5052847;28;20000;-73
2022/05/16 12:14:23;;;;;;;;;;;16.60;99.90;;;;;;5056894;28;20369;-73
2022/05/16 12:16:51;;;;;;;;;;;16.80;99.90;;;;;;5051601;28;20373;-74
2022/05/16 12:19:31;;;;;;;;;;;16.90;99.90;;;;;;5052289;28;19909;-74
2022/05/16 12:21:58;;;;;;;;;;;17.00;99.90;;;;;;5071992;28;20408;-73
2022/05/16 12:24:30;;;;;;;;;;;16.80;99.90;;;;;;5071306;28;19908;-75
2022/05/16 12:26:58;;;;;;;;;;;16.50;99.90;;;;;;5070934;28;19951;-74
2022/05/16 12:29:29;;;;;;;;;;;16.70;99.90;;;;;;5071049;28;20293;-74
2022/05/16 12:31:54;;;;;;;;;;;16.90;99.90;;;;;;5070494;28;20370;-73
2022/05/16 12:34:29;;;;;;;;;;;18.20;99.90;;;;;;5051530;28;19919;-74
2022/05/16 12:36:55;;;;;;;;;;;18.70;99.90;;;;;;5046510;28;19913;-73
2022/05/16 12:39:21;;;;;;;;;;;19.60;99.90;;;;;;5051824;28;19913;-73
2022/05/16 12:41:51;;;;;;;;;;;20.10;99.90;;;;;;5051396;28;19915;-73
2022/05/16 12:44:35;;;;;;;;;;;19.90;99.90;;;;;;5051001;28;19983;-73
2022/05/16 12:47:01;;;;;;;;;;;19.40;99.90;;;;;;5051276;28;20451;-72
2022/05/16 12:49:26;;;;;;;;;;;19.70;99.90;;;;;;5051194;28;19916;-73
2022/05/16 12:51:56;;;;;;;;;;;19.40;99.90;;;;;;5050775;28;20404;-73
2022/05/16 12:54:34;;;;;;;;;;;19.60;99.90;;;;;;5051398;28;19920;-73
2022/05/16 12:57:06;;;;;;;;;;;19.40;99.90;;;;;;5050411;28;20385;-73
2022/05/16 12:59:32;;;;;;;;;;;19.40;99.90;;;;;;5051280;28;19909;-70
2022/05/16 13:02:16;;;;;;;;;;;19.70;99.90;;;;;;5050843;28;19962;-70
2022/05/16 13:05:00;;;;;;;;;;;19.80;99.90;;;;;;5051452;28;19909;-71
2022/05/16 13:07:25;;;;;;;;;;;19.60;99.90;;;;;;5051377;28;19963;-71
2022/05/16 13:10:04;;;;;;;;;;;19.70;99.90;;;;;;5049828;28;19912;-71
2022/05/16 13:12:43;;;;;;;;;;;19.50;99.90;;;;;;5059869;28;19913;-71
2022/05/16 13:15:26;;;;;;;;;;;19.70;99.90;;;;;;5069766;28;20251;-71
2022/05/16 13:17:57;;;;;;;;;;;19.80;99.90;;;;;;5070013;28;20435;-71
2022/05/16 13:20:24;;;;;;;;;;;20.40;99.90;;;;;;5070425;28;19962;-71
2022/05/16 13:22:51;;;;;;;;;;;20.40;99.90;;;;;;5069793;28;19920;-71
2022/05/16 13:25:17;;;;;;;;;;;20.60;99.90;;;;;;5066338;28;19908;-71
2022/05/16 13:30:33;;;;;;;;;;;21.80;99.90;;;;;;5070271;28;19919;-72
2022/05/16 13:32:58;;;;;;;;;;;23.90;99.90;;;;;;5062168;28;20361;-71
2022/05/16 13:35:29;;;;;;;;;;;26.00;99.90;;;;;;5055023;28;19909;-72
2022/05/16 13:37:56;;;;;;;;;;;27.80;97.90;;;;;;5051138;28;19990;-72
2022/05/16 13:40:22;;;;;;;;;;;29.00;92.70;;;;;;5051140;28;20559;-72
2022/05/16 13:42:47;;;;;;;;;;;28.40;91.60;;;;;;5050055;28;19921;-72
2022/05/16 13:45:13;;;;;;;;;;;27.80;93.00;;;;;;5050657;28;19913;-72
2022/05/16 13:47:40;;;;;;;;;;;27.70;91.80;;;;;;5050762;28;19932;-72
2022/05/16 13:50:06;;;;;;;;;;;26.60;92.40;;;;;;5050928;28;19963;-72
2022/05/16 13:52:37;;;;;;;;;;;25.60;93.50;;;;;;5050355;28;19909;-72
2022/05/16 13:55:07;;;;;;;;;;;27.30;93.20;;;;;;5048953;28;19939;-72
2022/05/16 13:57:32;;;;;;;;;;;28.50;92.00;;;;;;5050552;28;19921;-74
2022/05/16 14:00:07;;;;;;;;;;;28.70;84.70;;;;;;5050809;28;20516;-72
2022/05/16 14:02:32;;;;;;;;;;;28.80;87.10;;;;;;5048574;28;19958;-72
2022/05/16 14:05:05;;;;;;;;;;;28.60;85.10;;;;;;5054158;28;19909;-72
2022/05/16 14:07:33;;;;;;;;;;;29.10;88.80;;;;;;5050717;28;19952;-74
2022/05/16 14:10:00;;;;;;;;;;;28.40;85.60;;;;;;5049225;28;19963;-73
2022/05/16 14:12:46;;;;;;;;;;;27.90;83.60;;;;;;5058419;28;19909;-72
2022/05/16 14:15:18;;;;;;;;;;;28.70;85.40;;;;;;5045503;28;19916;-72
2022/05/16 14:17:56;;;;;;;;;;;29.80;85.40;;;;;;5050412;28;20007;-72
2022/05/16 14:20:21;;;;;;;;;;;28.50;85.40;;;;;;5050419;28;19909;-71
2022/05/16 14:22:51;;;;;;;;;;;25.10;92.90;;;;;;5050286;28;19917;-71
2022/05/16 14:25:27;;;;;;;;;;;23.50;95.20;;;;;;5049980;28;19916;-70
2022/05/16 14:28:16;;;;;;;;;;;22.50;95.80;;;;;;5050191;28;19968;-71
2022/05/16 14:30:49;;;;;;;;;;;24.20;94.00;;;;;;5049224;28;19955;-71
2022/05/16 14:33:16;;;;;;;;;;;25.10;92.80;;;;;;5049146;28;20282;-71
2022/05/16 14:35:41;;;;;;;;;;;27.50;90.00;;;;;;5053993;28;20424;-71
2022/05/16 14:38:11;;;;;;;;;;;28.00;85.70;;;;;;5051086;28;19912;-71
2022/05/16 14:40:38;;;;;;;;;;;28.40;83.40;;;;;;5054306;28;20378;-71
2022/05/16 14:43:09;;;;;;;;;;;28.90;83.60;;;;;;5052943;28;19934;-71
2022/05/16 14:48:35;;;;;;;;;;;29.00;82.30;;;;;;5054771;28;19970;-71
2022/05/16 14:51:04;;;;;;;;;;;29.10;81.10;;;;;;5053747;28;19913;-71
2022/05/16 14:53:30;;;;;;;;;;;27.50;82.50;;;;;;5051938;28;19909;-71
2022/05/16 14:55:56;;;;;;;;;;;26.70;87.20;;;;;;5053495;28;20020;-71
2022/05/16 14:58:21;;;;;;;;;;;28.50;82.30;;;;;;5053529;28;20321;-71
2022/05/16 15:06:16;;;;;;;;;;;23.90;86.40;;;;;;5055317;28;20282;-71
2022/05/16 15:08:44;;;;;;;;;;;23.20;90.20;;;;;;5053387;28;20424;-71
2022/05/16 15:11:09;;;;;;;;;;;22.80;92.20;;;;;;5058339;28;19909;-72